Time;durP1;ratioP1;P1;durP2;ratioP2;P2;SDS_P1;SDS_P2;PMS_P1;PMS_P2;Temp;Humidity;BMP_temperature;BMP_pressure;BME280_temperature;BME280_humidity;BME280_pressure;Samples;Min_cycle;Max_cycle;Signal;HPM_P1;HPM_P2
2022/12/01 00:01:36;;;;;;;21.85;17.65;;;4.80;99.90;;;;;;6112950;23;20222;-70
2022/12/01 00:04:03;;;;;;;22.23;17.70;;;4.80;99.90;;;;;;6117050;23;20665;-70
2022/12/01 00:06:31;;;;;;;21.05;16.17;;;4.80;99.90;;;;;;6115851;23;20195;-70
2022/12/01 00:11:43;;;;;;;22.30;16.85;;;4.80;99.90;;;;;;6117145;23;20206;-71
2022/12/01 00:14:10;;;;;;;21.55;16.95;;;4.80;99.90;;;;;;6117468;23;20708;-70
2022/12/01 00:16:39;;;;;;;20.20;15.65;;;4.70;99.90;;;;;;6115148;23;20219;-70
2022/12/01 00:19:06;;;;;;;23.92;16.80;;;4.70;99.90;;;;;;6116413;23;20210;-70
2022/12/01 00:21:34;;;;;;;21.63;16.52;;;4.70;99.90;;;;;;6113626;23;20215;-70
2022/12/01 00:24:02;;;;;;;22.80;16.98;;;4.70;99.90;;;;;;6116507;23;20300;-71
2022/12/01 00:26:29;;;;;;;21.52;17.50;;;4.70;99.90;;;;;;6116101;23;20192;-72
2022/12/01 00:28:58;;;;;;;22.38;16.30;;;4.70;99.90;;;;;;6106889;23;20222;-71
2022/12/01 00:31:26;;;;;;;20.80;16.90;;;4.70;99.90;;;;;;6117207;23;20915;-70
2022/12/01 00:33:53;;;;;;;22.02;17.95;;;4.70;99.90;;;;;;6116663;23;20306;-70
2022/12/01 00:36:21;;;;;;;23.08;17.50;;;4.70;99.90;;;;;;6109596;23;20282;-70
2022/12/01 00:38:51;;;;;;;20.35;16.67;;;4.70;99.90;;;;;;6117030;23;20556;-69
2022/12/01 00:41:19;;;;;;;22.25;17.40;;;4.60;99.90;;;;;;6111082;23;20192;-69
2022/12/01 00:43:47;;;;;;;21.98;17.80;;;4.60;99.90;;;;;;6113219;23;20237;-69
2022/12/01 00:46:14;;;;;;;21.77;17.33;;;4.60;99.90;;;;;;6117050;23;20607;-70
2022/12/01 00:48:42;;;;;;;21.02;17.63;;;4.60;99.90;;;;;;6116422;23;20195;-70
2022/12/01 00:51:09;;;;;;;23.05;17.58;;;4.60;99.90;;;;;;6118620;23;20644;-70
2022/12/01 00:53:37;;;;;;;25.70;19.38;;;4.60;99.90;;;;;;6113449;23;20591;-70
2022/12/01 00:56:07;;;;;;;23.55;17.35;;;4.60;99.90;;;;;;6109494;23;20916;-70
2022/12/01 00:58:35;;;;;;;23.63;18.10;;;4.60;99.90;;;;;;6107233;23;20690;-70
2022/12/01 01:01:03;;;;;;;23.40;16.77;;;4.60;99.90;;;;;;6115816;23;20210;-70
2022/12/01 01:03:32;;;;;;;21.67;16.92;;;4.60;99.90;;;;;;6117503;23;20188;-70
2022/12/01 01:06:06;;;;;;;20.95;16.10;;;4.60;99.90;;;;;;6106531;23;20337;-70
2022/12/01 01:08:34;;;;;;;20.08;16.63;;;4.60;99.90;;;;;;6116160;23;20199;-70
2022/12/01 01:11:01;;;;;;;21.00;17.00;;;4.60;99.90;;;;;;6117086;23;20237;-70
2022/12/01 01:13:30;;;;;;;20.15;15.77;;;4.60;99.90;;;;;;6110136;23;20210;-70
2022/12/01 01:15:58;;;;;;;19.70;16.48;;;4.60;99.90;;;;;;6117841;23;20270;-70
2022/12/01 01:18:25;;;;;;;22.65;17.90;;;4.60;99.90;;;;;;6110939;23;20268;-70
2022/12/01 01:20:56;;;;;;;22.65;17.92;;;4.60;99.90;;;;;;6119040;23;20575;-70
2022/12/01 01:23:23;;;;;;;20.23;16.85;;;4.60;99.90;;;;;;6115246;23;20225;-70
2022/12/01 01:25:50;;;;;;;20.27;16.10;;;4.50;99.90;;;;;;6116919;23;20271;-71
2022/12/01 01:28:18;;;;;;;21.92;17.38;;;4.50;99.90;;;;;;6108085;23;20225;-71
2022/12/01 01:30:46;;;;;;;19.75;16.23;;;4.50;99.90;;;;;;6113794;23;20302;-71
2022/12/01 01:33:14;;;;;;;21.15;17.02;;;4.50;99.90;;;;;;6115921;23;20200;-71
2022/12/01 01:35:41;;;;;;;20.25;16.85;;;4.50;99.90;;;;;;6116325;23;20810;-71
2022/12/01 01:38:09;;;;;;;19.38;16.27;;;4.50;99.90;;;;;;6112816;23;20281;-71
2022/12/01 01:40:42;;;;;;;19.30;15.20;;;4.50;99.90;;;;;;6110955;23;20192;-70
2022/12/01 01:43:14;;;;;;;18.63;15.25;;;4.50;99.90;;;;;;6113607;23;20672;-70
2022/12/01 01:45:41;;;;;;;21.48;16.27;;;4.50;99.90;;;;;;6115800;23;20583;-71
2022/12/01 01:48:13;;;;;;;21.35;16.23;;;4.50;99.90;;;;;;6121580;23;20265;-70
2022/12/01 01:50:40;;;;;;;18.75;14.80;;;4.50;99.90;;;;;;6123147;23;20244;-71
2022/12/01 01:53:13;;;;;;;20.58;15.82;;;4.50;99.90;;;;;;6114083;23;20310;-71
2022/12/01 01:55:40;;;;;;;21.25;16.40;;;4.60;99.90;;;;;;6111888;23;20211;-70
2022/12/01 01:58:09;;;;;;;19.20;15.40;;;4.60;99.90;;;;;;6105418;23;20278;-71
2022/12/01 02:00:39;;;;;;;21.35;17.10;;;4.60;99.90;;;;;;6117810;23;20195;-71
2022/12/01 02:03:10;;;;;;;20.40;14.55;;;4.60;99.90;;;;;;6113876;23;20293;-71
2022/12/01 02:05:39;;;;;;;17.80;14.25;;;4.50;99.90;;;;;;6117559;23;20651;-71
2022/12/01 02:08:11;;;;;;;18.23;14.57;;;4.50;99.90;;;;;;6114559;23;20725;-71
2022/12/01 02:10:48;;;;;;;17.08;14.35;;;4.50;99.90;;;;;;6116255;23;20755;-71
2022/12/01 02:13:26;;;;;;;18.13;14.55;;;4.60;99.90;;;;;;6114692;23;20636;-70
2022/12/01 02:15:58;;;;;;;16.15;14.15;;;4.60;99.90;;;;;;6118065;23;20215;-70
2022/12/01 02:18:34;;;;;;;19.73;15.10;;;4.60;99.90;;;;;;6110101;23;20270;-71
2022/12/01 02:21:21;;;;;;;18.92;14.75;;;4.60;99.90;;;;;;6117489;23;20376;-71
2022/12/01 02:24:21;;;;;;;18.50;14.05;;;4.60;99.90;;;;;;6113137;23;20320;-71
2022/12/01 02:26:56;;;;;;;21.65;17.08;;;4.60;99.90;;;;;;6114948;23;20266;-71
2022/12/01 02:29:52;;;;;;;18.67;14.65;;;4.60;99.90;;;;;;6117957;23;20309;-71
2022/12/01 02:32:29;;;;;;;18.05;14.20;;;4.60;99.90;;;;;;6114387;23;20261;-71
2022/12/01 02:35:01;;;;;;;17.15;13.45;;;4.60;99.90;;;;;;6116136;23;20548;-71
2022/12/01 02:37:34;;;;;;;17.35;14.27;;;4.60;99.90;;;;;;6114296;23;20278;-71
2022/12/01 02:40:10;;;;;;;16.00;13.75;;;4.60;99.90;;;;;;6116215;23;20522;-70
2022/12/01 02:42:51;;;;;;;17.73;13.45;;;4.60;99.90;;;;;;6104778;23;20194;-71
2022/12/01 02:45:26;;;;;;;16.33;13.52;;;4.60;99.90;;;;;;6113490;23;20218;-71
2022/12/01 02:48:00;;;;;;;16.88;13.57;;;4.60;99.90;;;;;;6118227;23;20270;-71
2022/12/01 02:50:29;;;;;;;13.95;12.13;;;4.60;99.90;;;;;;6114798;23;20195;-71
2022/12/01 02:52:57;;;;;;;14.98;12.75;;;4.50;99.90;;;;;;6116525;23;20700;-71
2022/12/01 02:55:24;;;;;;;16.23;12.98;;;4.50;99.90;;;;;;6116811;23;20261;-71
2022/12/01 02:57:52;;;;;;;18.40;14.10;;;4.50;99.90;;;;;;6115566;23;20196;-70
2022/12/01 03:00:19;;;;;;;15.90;12.40;;;4.50;99.90;;;;;;6114585;23;20554;-71
2022/12/01 03:03:07;;;;;;;14.93;12.70;;;4.50;99.90;;;;;;6116255;23;20219;-71
2022/12/01 03:05:40;;;;;;;15.52;12.88;;;4.50;99.90;;;;;;6115728;23;20271;-71
2022/12/01 03:08:18;;;;;;;15.20;13.18;;;4.50;99.90;;;;;;6113513;23;20279;-71
2022/12/01 03:10:52;;;;;;;16.70;13.05;;;4.50;99.90;;;;;;6117046;23;20210;-71
2022/12/01 03:13:30;;;;;;;15.90;12.70;;;4.50;99.90;;;;;;6114620;23;20286;-71
2022/12/01 03:16:04;;;;;;;17.85;14.23;;;4.50;99.90;;;;;;6117079;23;20226;-74
2022/12/01 03:18:38;;;;;;;17.85;14.25;;;4.50;99.90;;;;;;6108769;23;20195;-71
2022/12/01 03:21:09;;;;;;;16.90;12.77;;;4.40;99.90;;;;;;6114985;23;20209;-71
2022/12/01 03:23:42;;;;;;;16.30;12.80;;;4.50;99.90;;;;;;6116540;23;20219;-70
2022/12/01 03:26:17;;;;;;;18.17;13.93;;;4.40;99.90;;;;;;6117079;23;20198;-70
2022/12/01 03:28:50;;;;;;;18.90;13.98;;;4.40;99.90;;;;;;6113523;23;20206;-71
2022/12/01 03:31:20;;;;;;;22.00;16.35;;;4.40;99.90;;;;;;6110066;23;20278;-71
2022/12/01 03:33:52;;;;;;;19.55;15.30;;;4.40;99.90;;;;;;6117468;23;20767;-71
2022/12/01 03:36:25;;;;;;;19.55;15.20;;;4.40;99.90;;;;;;6116556;23;20662;-70
2022/12/01 03:38:58;;;;;;;19.25;15.70;;;4.30;99.90;;;;;;6118024;23;20191;-70
2022/12/01 03:41:34;;;;;;;17.92;14.50;;;4.30;99.90;;;;;;6115209;23;20289;-70
2022/12/01 03:44:07;;;;;;;18.77;15.27;;;4.30;99.90;;;;;;6115987;23;20198;-70
2022/12/01 03:46:43;;;;;;;19.63;15.75;;;4.30;99.90;;;;;;6116986;23;20282;-70
2022/12/01 03:49:14;;;;;;;20.20;15.50;;;4.30;99.90;;;;;;6117507;23;20689;-70
2022/12/01 03:51:50;;;;;;;20.90;16.30;;;4.30;99.90;;;;;;6110888;23;20303;-71
2022/12/01 03:54:22;;;;;;;20.67;14.93;;;4.30;99.90;;;;;;6117923;23;20215;-70
2022/12/01 03:56:53;;;;;;;20.63;15.65;;;4.30;99.90;;;;;;6117786;23;20274;-71
2022/12/01 03:59:24;;;;;;;19.75;15.55;;;4.30;99.90;;;;;;6113888;23;20601;-70
2022/12/01 04:01:51;;;;;;;20.25;16.35;;;4.30;99.90;;;;;;6114918;23;20294;-70
2022/12/01 04:04:21;;;;;;;21.25;16.27;;;4.30;99.90;;;;;;6118545;23;20256;-70
2022/12/01 04:06:50;;;;;;;17.40;15.07;;;4.30;99.90;;;;;;6115184;23;20278;-71
2022/12/01 04:09:17;;;;;;;23.70;17.65;;;4.30;99.90;;;;;;6117443;23;20202;-70
2022/12/01 04:14:29;;;;;;;21.00;17.20;;;4.30;99.90;;;;;;6115060;23;20214;-70
2022/12/01 04:16:56;;;;;;;20.50;16.95;;;4.30;99.90;;;;;;6117955;23;20218;-71
2022/12/01 04:19:24;;;;;;;23.30;17.08;;;4.30;99.90;;;;;;6117550;23;20227;-71
2022/12/01 04:21:51;;;;;;;23.52;18.05;;;4.20;99.90;;;;;;6118001;23;20308;-70
2022/12/01 04:24:19;;;;;;;23.10;17.65;;;4.20;99.90;;;;;;6116416;23;20195;-70
2022/12/01 04:26:46;;;;;;;22.27;17.27;;;4.20;99.90;;;;;;6112997;23;20215;-70
2022/12/01 04:29:13;;;;;;;22.65;17.27;;;4.20;99.90;;;;;;6116366;23;20250;-71
2022/12/01 04:31:40;;;;;;;22.45;16.77;;;4.10;99.90;;;;;;6114574;23;20676;-70
2022/12/01 04:34:07;;;;;;;22.42;17.10;;;4.10;99.90;;;;;;6118059;23;20191;-70
2022/12/01 04:36:36;;;;;;;20.48;16.65;;;4.20;99.90;;;;;;6117411;23;20230;-70
2022/12/01 04:39:04;;;;;;;21.15;16.77;;;4.20;99.90;;;;;;6117206;23;20214;-71
2022/12/01 04:41:31;;;;;;;24.10;17.50;;;4.20;99.90;;;;;;6115590;23;20278;-70
2022/12/01 04:43:58;;;;;;;20.73;16.08;;;4.20;99.90;;;;;;6117483;23;20195;-71
2022/12/01 04:46:25;;;;;;;23.90;19.08;;;4.20;99.90;;;;;;6111730;23;20266;-70
2022/12/01 04:48:53;;;;;;;22.30;18.05;;;4.20;99.90;;;;;;6113785;23;20583;-71
2022/12/01 04:51:21;;;;;;;19.40;16.20;;;4.30;99.90;;;;;;6112769;23;20713;-70
2022/12/01 04:53:49;;;;;;;20.58;18.38;;;4.30;99.90;;;;;;6118104;23;20196;-70
2022/12/01 04:56:16;;;;;;;21.15;17.20;;;4.30;99.90;;;;;;6117219;23;20298;-70
2022/12/01 04:58:44;;;;;;;23.23;17.40;;;4.30;99.90;;;;;;6114434;23;20273;-70
2022/12/01 05:01:14;;;;;;;20.00;15.77;;;4.20;99.90;;;;;;6115502;23;20288;-70
2022/12/01 05:03:44;;;;;;;20.33;15.85;;;4.30;99.90;;;;;;6107536;23;20195;-71
2022/12/01 05:06:14;;;;;;;21.20;16.15;;;4.30;99.90;;;;;;6116813;23;20188;-70
2022/12/01 05:08:42;;;;;;;20.33;16.02;;;4.30;99.90;;;;;;6115574;23;20615;-71
2022/12/01 05:11:12;;;;;;;19.63;15.43;;;4.30;99.90;;;;;;6116505;23;20632;-70
2022/12/01 05:13:40;;;;;;;20.92;16.20;;;4.30;99.90;;;;;;6115712;23;20210;-70
2022/12/01 05:16:10;;;;;;;19.45;15.90;;;4.40;99.90;;;;;;6115265;23;20272;-70
2022/12/01 05:18:37;;;;;;;20.80;15.27;;;4.40;99.90;;;;;;6116710;23;20222;-71
2022/12/01 05:21:05;;;;;;;19.25;15.57;;;4.40;99.90;;;;;;6114449;23;20202;-70
2022/12/01 05:23:35;;;;;;;20.58;16.30;;;4.40;99.90;;;;;;6113689;23;20240;-70
2022/12/01 05:26:03;;;;;;;20.50;16.63;;;4.50;99.90;;;;;;6114997;23;20286;-70
2022/12/01 05:28:32;;;;;;;19.35;15.18;;;4.50;99.90;;;;;;6103787;23;20203;-70
2022/12/01 05:30:59;;;;;;;20.60;16.33;;;4.50;99.90;;;;;;6111579;23;20195;-70
2022/12/01 05:33:27;;;;;;;20.73;17.08;;;4.50;99.90;;;;;;6115475;23;20275;-70
2022/12/01 05:35:55;;;;;;;19.65;14.90;;;4.50;99.90;;;;;;6112815;23;20302;-70
2022/12/01 05:38:22;;;;;;;20.63;16.98;;;4.50;99.90;;;;;;6106482;23;20195;-69
2022/12/01 05:40:51;;;;;;;21.15;16.88;;;4.40;99.90;;;;;;6114104;23;20252;-69
2022/12/01 05:43:19;;;;;;;21.75;17.13;;;4.40;99.90;;;;;;6117623;23;20202;-69
2022/12/01 05:45:48;;;;;;;22.20;17.90;;;4.40;99.90;;;;;;6115477;23;20271;-70
2022/12/01 05:48:16;;;;;;;23.67;17.90;;;4.20;99.90;;;;;;6112806;23;20274;-69
2022/12/01 05:50:45;;;;;;;22.15;17.13;;;4.40;99.90;;;;;;6117287;23;20222;-69
2022/12/01 05:53:13;;;;;;;22.25;18.73;;;4.40;99.90;;;;;;6117413;23;20206;-70
2022/12/01 05:55:40;;;;;;;19.98;17.55;;;4.40;99.90;;;;;;6114815;23;20321;-69
2022/12/01 05:58:07;;;;;;;20.88;18.67;;;4.40;99.90;;;;;;6118250;23;20724;-69
2022/12/01 06:00:35;;;;;;;23.98;20.30;;;4.40;99.90;;;;;;6112244;23;20202;-69
2022/12/01 06:03:04;;;;;;;21.65;18.02;;;4.40;99.90;;;;;;6101898;23;20193;-70
2022/12/01 06:05:31;;;;;;;19.67;15.48;;;4.40;99.90;;;;;;6112371;23;20617;-77
2022/12/01 06:08:01;;;;;;;19.67;16.50;;;4.60;99.90;;;;;;6105482;23;20206;-77
2022/12/01 06:10:29;;;;;;;21.02;17.02;;;4.90;99.90;;;;;;6113247;23;20271;-75
2022/12/01 06:12:57;;;;;;;20.30;17.08;;;4.80;99.90;;;;;;6119506;23;20279;-72
2022/12/01 06:15:24;;;;;;;21.80;16.95;;;4.90;99.90;;;;;;6110468;23;20208;-72
2022/12/01 06:17:51;;;;;;;20.45;16.30;;;4.90;99.90;;;;;;6110764;23;20190;-71
2022/12/01 06:20:20;;;;;;;20.85;17.10;;;4.80;99.90;;;;;;6113407;23;20266;-71
2022/12/01 06:22:48;;;;;;;20.92;16.15;;;4.80;99.90;;;;;;6105690;23;20830;-72
2022/12/01 06:25:15;;;;;;;19.90;16.58;;;4.80;99.90;;;;;;6116839;23;20304;-71
2022/12/01 06:27:43;;;;;;;21.77;16.85;;;4.80;99.90;;;;;;6115257;23;20275;-71
2022/12/01 06:30:11;;;;;;;22.90;17.60;;;4.70;99.90;;;;;;6114448;23;20188;-71
2022/12/01 06:32:38;;;;;;;19.65;16.80;;;4.70;99.90;;;;;;6115891;23;20453;-71
2022/12/01 06:35:06;;;;;;;19.48;15.55;;;4.70;99.90;;;;;;6115602;23;20638;-71
2022/12/01 06:37:35;;;;;;;20.88;17.20;;;4.70;99.90;;;;;;6114745;23;20207;-77
2022/12/01 06:40:03;;;;;;;21.88;17.17;;;4.60;99.90;;;;;;6120693;23;20187;-72
2022/12/01 06:42:31;;;;;;;20.52;17.08;;;4.60;99.90;;;;;;6117439;23;20192;-71
2022/12/01 06:45:01;;;;;;;19.33;16.33;;;4.60;99.90;;;;;;6116128;23;20270;-71
2022/12/01 06:47:28;;;;;;;20.02;15.98;;;4.60;99.90;;;;;;6116914;23;20214;-71
2022/12/01 06:49:55;;;;;;;18.05;16.10;;;4.50;99.90;;;;;;6118293;23;20194;-71
2022/12/01 06:52:23;;;;;;;18.27;15.68;;;4.50;99.90;;;;;;6116322;23;20213;-71
2022/12/01 06:54:53;;;;;;;20.60;16.70;;;4.50;99.90;;;;;;6112790;23;20601;-72
2022/12/01 06:57:20;;;;;;;20.00;17.63;;;4.40;99.90;;;;;;6117021;23;20238;-72
2022/12/01 06:59:47;;;;;;;21.20;17.40;;;4.40;99.90;;;;;;6116356;23;20219;-72
2022/12/01 07:02:15;;;;;;;23.52;17.55;;;4.40;99.90;;;;;;6114775;23;20245;-72
2022/12/01 07:04:43;;;;;;;21.15;18.33;;;4.40;99.90;;;;;;6115889;23;20207;-72
2022/12/01 07:07:11;;;;;;;19.50;16.42;;;4.40;99.90;;;;;;6112205;23;20267;-70
2022/12/01 07:09:38;;;;;;;21.10;17.20;;;4.40;99.90;;;;;;6112695;23;20195;-72
2022/12/01 07:12:07;;;;;;;21.45;17.13;;;4.40;99.90;;;;;;6118779;23;20521;-72
2022/12/01 07:14:34;;;;;;;19.92;16.42;;;4.40;99.90;;;;;;6117803;23;20266;-72
2022/12/01 07:17:01;;;;;;;19.15;15.85;;;4.40;99.90;;;;;;6117336;23;20312;-72
2022/12/01 07:19:28;;;;;;;20.90;16.50;;;4.40;99.90;;;;;;6116940;23;20191;-72
2022/12/01 07:21:55;;;;;;;21.08;17.38;;;4.40;99.90;;;;;;6118035;23;20203;-72
2022/12/01 07:24:22;;;;;;;20.08;15.68;;;4.40;99.90;;;;;;6116286;23;20187;-72
2022/12/01 07:26:50;;;;;;;21.00;16.73;;;4.40;99.90;;;;;;6108884;23;20189;-72
2022/12/01 07:29:18;;;;;;;19.02;15.25;;;4.30;99.90;;;;;;6118750;23;20191;-72
2022/12/01 07:31:45;;;;;;;21.60;16.95;;;4.30;99.90;;;;;;6119577;23;20252;-72
2022/12/01 07:34:13;;;;;;;22.33;16.73;;;4.30;99.90;;;;;;6113188;23;20191;-72
2022/12/01 07:36:41;;;;;;;18.88;15.50;;;4.30;99.90;;;;;;6118101;23;20235;-71
2022/12/01 07:39:10;;;;;;;20.20;15.90;;;4.30;99.90;;;;;;6115327;23;20549;-72
2022/12/01 07:41:38;;;;;;;19.60;16.00;;;4.30;99.90;;;;;;6116937;23;20199;-72
2022/12/01 07:44:05;;;;;;;16.98;14.07;;;4.30;99.90;;;;;;6117319;23;20192;-72
2022/12/01 07:46:33;;;;;;;18.60;15.80;;;4.30;99.90;;;;;;6117615;23;20709;-72
2022/12/01 07:49:01;;;;;;;20.50;16.15;;;4.30;99.90;;;;;;6105448;23;20608;-72
2022/12/01 07:51:30;;;;;;;22.65;17.15;;;4.40;99.90;;;;;;6117650;23;20266;-72
2022/12/01 07:54:01;;;;;;;20.20;16.48;;;4.30;99.90;;;;;;6113192;23;20214;-72
2022/12/01 07:56:30;;;;;;;19.38;16.10;;;4.40;99.90;;;;;;6115915;23;20200;-72
2022/12/01 07:58:57;;;;;;;18.60;15.00;;;4.40;99.90;;;;;;6116575;23;20236;-72
2022/12/01 08:01:25;;;;;;;16.92;14.60;;;4.40;99.90;;;;;;6114690;23;20230;-72
2022/12/01 08:03:55;;;;;;;19.05;15.50;;;4.40;99.90;;;;;;6106272;23;20590;-72
2022/12/01 08:06:23;;;;;;;20.42;15.82;;;4.30;99.90;;;;;;6113167;23;20188;-72
2022/12/01 08:08:51;;;;;;;18.33;15.35;;;4.40;99.90;;;;;;6111032;23;20295;-72
2022/12/01 08:11:19;;;;;;;19.08;16.13;;;4.40;99.90;;;;;;6115496;23;20222;-72
2022/12/01 08:13:47;;;;;;;20.42;15.77;;;4.40;99.90;;;;;;6115645;23;20199;-72
2022/12/01 08:16:17;;;;;;;19.25;15.63;;;4.40;99.90;;;;;;6118023;23;20215;-71
2022/12/01 08:18:46;;;;;;;17.90;14.48;;;4.40;99.90;;;;;;6112330;23;20280;-72
2022/12/01 08:21:17;;;;;;;19.58;16.27;;;4.40;99.90;;;;;;6112613;23;20218;-72
2022/12/01 08:23:45;;;;;;;18.65;16.00;;;4.50;99.90;;;;;;6114655;23;20278;-72
2022/12/01 08:26:15;;;;;;;19.15;16.45;;;4.50;99.90;;;;;;6120068;23;20183;-72
2022/12/01 08:28:43;;;;;;;18.92;14.73;;;4.50;99.90;;;;;;6119730;23;20660;-73
2022/12/01 08:31:15;;;;;;;17.35;14.43;;;4.50;99.90;;;;;;6140455;23;20264;-72
2022/12/01 08:33:42;;;;;;;17.88;14.60;;;4.50;99.90;;;;;;6117549;23;20263;-72
2022/12/01 08:36:10;;;;;;;18.30;15.52;;;4.50;99.90;;;;;;6114212;23;20292;-73
2022/12/01 08:38:38;;;;;;;19.60;15.45;;;4.50;99.90;;;;;;6118475;23;20194;-73
2022/12/01 08:41:07;;;;;;;22.35;16.75;;;4.50;99.90;;;;;;6115925;23;20198;-72
2022/12/01 08:43:38;;;;;;;20.70;16.20;;;4.50;99.90;;;;;;6115215;23;20245;-71
2022/12/01 08:46:06;;;;;;;18.20;15.50;;;4.50;99.90;;;;;;6109205;23;20267;-72
2022/12/01 08:48:34;;;;;;;18.83;16.35;;;4.60;99.90;;;;;;6117770;23;20187;-71
2022/12/01 08:51:03;;;;;;;18.60;15.02;;;4.60;99.90;;;;;;6118090;23;20570;-71
2022/12/01 08:53:30;;;;;;;17.77;15.20;;;4.60;99.90;;;;;;6117466;23;20184;-71
2022/12/01 08:56:01;;;;;;;16.77;14.45;;;4.60;99.90;;;;;;6109071;23;20215;-71
2022/12/01 08:58:28;;;;;;;19.63;16.65;;;4.60;99.90;;;;;;6117758;23;20196;-71
2022/12/01 09:01:01;;;;;;;19.60;15.65;;;4.60;99.90;;;;;;6111120;23;20188;-71
2022/12/01 09:03:28;;;;;;;18.98;15.38;;;4.60;99.90;;;;;;6113936;23;20206;-76
2022/12/01 09:06:01;;;;;;;18.65;15.50;;;4.70;99.90;;;;;;6116496;23;20198;-71
2022/12/01 09:08:32;;;;;;;18.10;15.23;;;4.60;99.90;;;;;;6111402;23;20256;-72
2022/12/01 09:11:03;;;;;;;19.58;16.77;;;4.70;99.90;;;;;;6107662;23;20206;-71
2022/12/01 09:13:31;;;;;;;17.83;15.50;;;4.70;99.90;;;;;;6119150;23;20219;-72
2022/12/01 09:15:59;;;;;;;20.45;15.80;;;4.70;99.90;;;;;;6118199;23;20279;-71
2022/12/01 09:18:27;;;;;;;20.33;16.25;;;4.80;99.90;;;;;;6118259;23;20200;-72
2022/12/01 09:20:54;;;;;;;20.85;15.52;;;4.70;99.90;;;;;;6118753;23;20195;-71
2022/12/01 09:23:22;;;;;;;20.65;16.50;;;4.70;99.90;;;;;;6117219;23;20222;-71
2022/12/01 09:25:51;;;;;;;19.83;15.85;;;4.70;99.90;;;;;;6119600;23;20584;-71
2022/12/01 09:28:20;;;;;;;18.30;15.65;;;4.70;99.90;;;;;;6118024;23;20557;-72
2022/12/01 09:30:47;;;;;;;18.65;16.17;;;4.80;99.90;;;;;;6119330;23;20274;-72
2022/12/01 09:33:14;;;;;;;18.77;15.25;;;4.70;99.90;;;;;;6112781;23;20661;-72
2022/12/01 09:35:41;;;;;;;20.50;15.45;;;4.70;99.90;;;;;;6115102;23;20184;-71
2022/12/01 09:38:08;;;;;;;19.35;15.55;;;4.70;99.90;;;;;;6117654;23;20741;-71
2022/12/01 09:40:38;;;;;;;20.52;15.32;;;4.80;99.90;;;;;;6119550;23;20188;-71
2022/12/01 09:43:11;;;;;;;16.52;14.68;;;4.80;99.90;;;;;;6118931;23;20269;-71
2022/12/01 09:45:46;;;;;;;20.05;14.80;;;4.80;99.90;;;;;;6119419;23;20203;-71
2022/12/01 09:48:23;;;;;;;19.33;15.60;;;4.80;99.90;;;;;;6118401;23;20198;-71
2022/12/01 09:50:51;;;;;;;19.17;15.80;;;4.80;99.90;;;;;;6117339;23;20195;-71
2022/12/01 09:53:22;;;;;;;20.45;15.50;;;4.90;99.90;;;;;;6118529;23;20229;-72
2022/12/01 09:55:51;;;;;;;20.63;16.63;;;4.90;99.90;;;;;;6117037;23;20592;-71
2022/12/01 09:58:22;;;;;;;22.15;16.23;;;4.90;99.90;;;;;;6113467;23;20234;-71
2022/12/01 10:00:52;;;;;;;18.52;15.57;;;4.90;99.90;;;;;;6117108;23;20597;-72
2022/12/01 10:03:29;;;;;;;17.33;15.02;;;4.90;99.90;;;;;;6119290;23;20261;-71
2022/12/01 10:06:01;;;;;;;18.10;14.60;;;4.90;99.90;;;;;;6117960;23;20203;-71
2022/12/01 10:08:33;;;;;;;17.85;14.70;;;5.00;99.90;;;;;;6118960;23;20203;-71
2022/12/01 10:11:08;;;;;;;19.52;15.50;;;5.00;99.90;;;;;;6117876;23;20203;-71
2022/12/01 10:13:35;;;;;;;17.52;14.45;;;5.10;99.90;;;;;;6119371;23;20289;-71
2022/12/01 10:16:10;;;;;;;19.63;15.68;;;5.10;99.90;;;;;;6115442;23;20541;-71
2022/12/01 10:18:49;;;;;;;20.00;15.70;;;5.10;99.90;;;;;;6117850;23;20501;-71
2022/12/01 10:21:29;;;;;;;17.42;15.00;;;5.20;99.90;;;;;;6117788;23;20810;-71
2022/12/01 10:24:22;;;;;;;22.60;15.98;;;5.20;99.90;;;;;;6119822;23;20266;-71
2022/12/01 10:26:55;;;;;;;18.05;15.05;;;5.30;99.90;;;;;;6118030;23;20238;-72
2022/12/01 10:29:33;;;;;;;19.08;15.07;;;5.30;99.90;;;;;;6119322;23;20198;-72
2022/12/01 10:32:07;;;;;;;18.40;15.02;;;5.30;99.90;;;;;;6119098;23;20269;-72
2022/12/01 10:34:38;;;;;;;17.23;14.15;;;5.40;99.90;;;;;;6117439;23;20281;-71
2022/12/01 10:37:06;;;;;;;20.38;14.80;;;5.30;99.90;;;;;;6117049;23;20219;-72
2022/12/01 10:39:37;;;;;;;17.35;14.80;;;5.30;99.90;;;;;;6118985;23;20598;-72
2022/12/01 10:42:07;;;;;;;18.10;14.85;;;5.40;99.90;;;;;;6119219;23;20187;-71
2022/12/01 10:44:34;;;;;;;17.58;13.30;;;5.40;99.90;;;;;;6118432;23;20270;-72
2022/12/01 10:47:03;;;;;;;18.20;15.32;;;5.40;99.90;;;;;;6119147;23;20630;-72
2022/12/01 10:49:38;;;;;;;17.85;15.30;;;5.40;99.90;;;;;;6118956;23;20210;-71
2022/12/01 10:52:05;;;;;;;19.17;15.23;;;5.50;99.90;;;;;;6109143;23;20214;-72
2022/12/01 10:54:35;;;;;;;18.27;16.23;;;5.50;99.90;;;;;;6117438;23;20294;-71
2022/12/01 10:57:04;;;;;;;18.45;15.35;;;5.50;99.90;;;;;;6121085;23;20207;-73
2022/12/01 10:59:35;;;;;;;20.17;16.05;;;5.50;99.90;;;;;;6107397;23;20207;-73
2022/12/01 11:02:14;;;;;;;18.08;14.82;;;5.60;99.90;;;;;;6118946;23;20273;-73
2022/12/01 11:04:47;;;;;;;16.65;14.75;;;5.60;99.90;;;;;;6118636;23;20227;-72
2022/12/01 11:07:18;;;;;;;20.45;15.45;;;5.60;99.90;;;;;;6109404;23;20219;-73
2022/12/01 11:09:46;;;;;;;25.73;15.90;;;5.70;99.90;;;;;;6117505;23;20226;-73
2022/12/01 11:12:19;;;;;;;21.85;14.80;;;5.60;99.90;;;;;;6108993;23;20250;-73
2022/12/01 11:14:49;;;;;;;17.63;14.88;;;5.70;99.90;;;;;;6118184;23;20195;-72
2022/12/01 11:17:27;;;;;;;16.50;13.98;;;5.70;99.90;;;;;;6118409;23;20510;-72
2022/12/01 11:19:55;;;;;;;19.83;14.90;;;5.70;99.90;;;;;;6117402;23;20549;-72
2022/12/01 11:22:24;;;;;;;17.45;14.57;;;5.70;99.90;;;;;;6117401;23;20664;-73
2022/12/01 11:25:00;;;;;;;18.00;13.95;;;5.70;99.90;;;;;;6111067;23;20199;-73
2022/12/01 11:27:31;;;;;;;18.42;14.82;;;5.70;99.90;;;;;;6117377;23;20269;-72
2022/12/01 11:30:03;;;;;;;18.98;14.07;;;5.70;99.90;;;;;;6116748;23;20203;-73
2022/12/01 11:32:34;;;;;;;16.10;13.93;;;5.80;99.90;;;;;;6118281;23;20187;-72
2022/12/01 11:35:05;;;;;;;16.58;13.45;;;5.80;99.90;;;;;;6118274;23;20278;-72
2022/12/01 11:37:37;;;;;;;16.02;12.95;;;5.90;99.90;;;;;;6118442;23;20267;-72
2022/12/01 11:40:09;;;;;;;17.80;13.75;;;5.90;99.90;;;;;;6107260;23;20278;-72
2022/12/01 11:42:36;;;;;;;17.27;13.98;;;6.00;99.90;;;;;;6119034;23;20202;-72
2022/12/01 11:45:08;;;;;;;19.80;13.93;;;6.00;99.90;;;;;;6117755;23;20708;-72
2022/12/01 11:48:04;;;;;;;17.40;13.77;;;6.10;99.90;;;;;;6118725;23;20183;-72
2022/12/01 11:50:34;;;;;;;16.42;14.18;;;6.10;99.90;;;;;;6116675;23;20187;-72
2022/12/01 11:53:03;;;;;;;17.20;13.30;;;6.10;99.90;;;;;;6118533;23;20196;-72
2022/12/01 11:55:31;;;;;;;13.77;12.25;;;6.20;99.90;;;;;;6120134;23;20644;-71
2022/12/01 11:58:01;;;;;;;15.27;13.05;;;6.20;99.90;;;;;;6119036;23;20229;-72
2022/12/01 12:00:34;;;;;;;17.10;13.25;;;6.20;99.90;;;;;;6120305;23;20383;-72
2022/12/01 12:03:27;;;;;;;16.55;13.63;;;6.30;99.90;;;;;;6119320;23;20585;-72
2022/12/01 12:06:14;;;;;;;15.90;13.45;;;6.20;99.90;;;;;;6107265;23;20265;-72
2022/12/01 12:08:58;;;;;;;17.13;14.27;;;6.30;99.90;;;;;;6119041;23;20262;-72
2022/12/01 12:11:34;;;;;;;17.52;14.00;;;6.30;99.90;;;;;;6119058;23;20633;-72
2022/12/01 12:14:19;;;;;;;15.50;13.80;;;6.30;99.90;;;;;;6110498;23;20226;-72
2022/12/01 12:17:04;;;;;;;17.38;13.65;;;6.30;99.90;;;;;;6119512;23;20297;-72
2022/12/01 12:19:49;;;;;;;14.40;12.70;;;6.30;99.90;;;;;;6119025;23;20191;-72
2022/12/01 12:22:27;;;;;;;15.02;13.23;;;6.30;99.90;;;;;;6104856;23;20617;-72
2022/12/01 12:25:07;;;;;;;15.95;13.88;;;6.40;99.90;;;;;;6118653;23;20697;-72
2022/12/01 12:27:45;;;;;;;17.65;13.50;;;6.30;99.90;;;;;;6118352;23;20218;-72
2022/12/01 12:30:20;;;;;;;17.02;13.70;;;6.30;99.90;;;;;;6119449;23;20260;-72
2022/12/01 12:33:06;;;;;;;15.77;14.07;;;6.30;99.90;;;;;;6115707;23;20242;-72
2022/12/01 12:35:41;;;;;;;17.40;14.50;;;6.20;99.90;;;;;;6114482;23;20187;-72
2022/12/01 12:38:30;;;;;;;18.45;14.27;;;6.20;99.90;;;;;;6118118;23;20218;-72
2022/12/01 12:41:07;;;;;;;17.52;14.45;;;6.20;99.90;;;;;;6115945;23;20630;-72
2022/12/01 12:43:43;;;;;;;16.20;14.30;;;6.20;99.90;;;;;;6119286;23;20209;-72
2022/12/01 12:46:14;;;;;;;17.73;13.30;;;6.10;99.90;;;;;;6120106;23;20193;-72
2022/12/01 12:48:57;;;;;;;14.30;12.18;;;6.10;99.90;;;;;;6118996;23;20720;-72
2022/12/01 12:51:32;;;;;;;16.23;12.82;;;6.10;99.90;;;;;;6119741;23;20650;-72
2022/12/01 12:54:09;;;;;;;18.60;14.05;;;6.10;99.90;;;;;;6118008;23;20672;-72
2022/12/01 12:56:37;;;;;;;15.07;12.82;;;6.00;99.90;;;;;;6119207;23;20285;-71
2022/12/01 12:59:11;;;;;;;16.00;13.27;;;6.00;99.90;;;;;;6115012;23;20669;-73